Aviation Digital Data Service (ADDS)

Output produced by TAFs form (0123 UTC 27 April 2017)
found at http://www.aviationweather.gov/adds/tafs/
 
METAR text: RJTE 262129Z 34009KT 310V010 5000 -SHRA BR FEW004 SCT005 BKN020 14/13 Q1002 RMK 1ST004 4ST005 7CU020 A2961
Conditions at: RJTE (TATEYAMA (JMSDF), JP) observed 2129 UTC 26 April 2017
Temperature: 14.0°C (57°F)
Dewpoint: 13.0°C (55°F) [RH = 94%]
Pressure (altimeter): 29.59 inches Hg (1002.0 mb)
Winds: from the NNW (340 degrees) at 10 MPH (9 knots; 4.7 m/s)
Visibility: 3 miles (5 km)
Ceiling: 2000 feet AGL
Clouds: few clouds at 400 feet AGL
scattered clouds at 500 feet AGL
broken clouds at 2000 feet AGL
Weather: -SHRA BR  (light rain showers, mist)